sensor_id;sensor_type;location;lat;lon;timestamp;P1;durP1;ratioP1;P2;durP2;ratioP2
68455;SDS011;55437;55.046;38.838;2023-07-09T00:00:47;25.40;;;10.75;;
68455;SDS011;55437;55.046;38.838;2023-07-09T00:03:14;23.38;;;11.45;;
68455;SDS011;55437;55.046;38.838;2023-07-09T00:05:41;19.33;;;10.30;;
68455;SDS011;55437;55.046;38.838;2023-07-09T00:08:15;24.13;;;10.80;;
68455;SDS011;55437;55.046;38.838;2023-07-09T00:10:52;20.83;;;10.07;;
68455;SDS011;55437;55.046;38.838;2023-07-09T00:13:20;23.15;;;10.00;;
68455;SDS011;55437;55.046;38.838;2023-07-09T00:15:47;24.08;;;9.52;;
68455;SDS011;55437;55.046;38.838;2023-07-09T00:18:13;19.10;;;9.45;;
68455;SDS011;55437;55.046;38.838;2023-07-09T00:20:39;19.75;;;9.13;;
68455;SDS011;55437;55.046;38.838;2023-07-09T00:23:07;17.63;;;9.18;;
68455;SDS011;55437;55.046;38.838;2023-07-09T00:25:32;16.55;;;8.85;;
68455;SDS011;55437;55.046;38.838;2023-07-09T00:28:01;23.58;;;9.13;;
68455;SDS011;55437;55.046;38.838;2023-07-09T00:30:27;17.10;;;9.30;;
68455;SDS011;55437;55.046;38.838;2023-07-09T00:32:53;21.30;;;9.27;;
68455;SDS011;55437;55.046;38.838;2023-07-09T00:35:19;24.98;;;10.45;;
68455;SDS011;55437;55.046;38.838;2023-07-09T00:37:47;21.40;;;10.00;;
68455;SDS011;55437;55.046;38.838;2023-07-09T00:40:18;23.92;;;9.15;;
68455;SDS011;55437;55.046;38.838;2023-07-09T00:42:47;34.83;;;11.25;;
68455;SDS011;55437;55.046;38.838;2023-07-09T00:45:17;33.38;;;10.82;;
68455;SDS011;55437;55.046;38.838;2023-07-09T00:47:50;25.65;;;11.30;;
68455;SDS011;55437;55.046;38.838;2023-07-09T00:53:13;22.95;;;9.82;;
68455;SDS011;55437;55.046;38.838;2023-07-09T00:55:44;36.58;;;11.68;;
68455;SDS011;55437;55.046;38.838;2023-07-09T00:58:16;30.85;;;11.52;;
68455;SDS011;55437;55.046;38.838;2023-07-09T01:01:06;29.88;;;12.23;;
68455;SDS011;55437;55.046;38.838;2023-07-09T01:03:39;27.77;;;11.48;;
68455;SDS011;55437;55.046;38.838;2023-07-09T01:06:10;24.30;;;10.35;;
68455;SDS011;55437;55.046;38.838;2023-07-09T01:08:38;22.90;;;11.07;;
68455;SDS011;55437;55.046;38.838;2023-07-09T01:11:18;31.25;;;11.30;;
68455;SDS011;55437;55.046;38.838;2023-07-09T01:13:57;20.23;;;10.77;;
68455;SDS011;55437;55.046;38.838;2023-07-09T01:18:57;23.10;;;9.73;;
68455;SDS011;55437;55.046;38.838;2023-07-09T01:21:23;22.33;;;10.38;;
68455;SDS011;55437;55.046;38.838;2023-07-09T01:23:49;23.73;;;9.98;;
68455;SDS011;55437;55.046;38.838;2023-07-09T01:26:17;22.88;;;10.13;;
68455;SDS011;55437;55.046;38.838;2023-07-09T01:28:44;28.52;;;10.10;;
68455;SDS011;55437;55.046;38.838;2023-07-09T01:31:11;23.48;;;9.43;;
68455;SDS011;55437;55.046;38.838;2023-07-09T01:33:41;22.90;;;9.35;;
68455;SDS011;55437;55.046;38.838;2023-07-09T01:36:11;19.63;;;8.85;;
68455;SDS011;55437;55.046;38.838;2023-07-09T01:41:06;24.25;;;8.75;;
68455;SDS011;55437;55.046;38.838;2023-07-09T01:43:32;22.52;;;9.02;;
68455;SDS011;55437;55.046;38.838;2023-07-09T01:45:59;23.20;;;10.05;;
68455;SDS011;55437;55.046;38.838;2023-07-09T01:48:26;22.98;;;8.85;;
68455;SDS011;55437;55.046;38.838;2023-07-09T01:50:52;17.52;;;8.93;;
68455;SDS011;55437;55.046;38.838;2023-07-09T01:53:20;18.80;;;8.20;;
68455;SDS011;55437;55.046;38.838;2023-07-09T01:55:49;18.42;;;8.40;;
68455;SDS011;55437;55.046;38.838;2023-07-09T01:58:16;15.52;;;8.25;;
68455;SDS011;55437;55.046;38.838;2023-07-09T02:00:42;19.08;;;8.48;;
68455;SDS011;55437;55.046;38.838;2023-07-09T02:03:11;18.80;;;8.25;;
68455;SDS011;55437;55.046;38.838;2023-07-09T02:05:37;19.33;;;7.30;;
68455;SDS011;55437;55.046;38.838;2023-07-09T02:08:03;15.55;;;7.60;;
68455;SDS011;55437;55.046;38.838;2023-07-09T02:10:30;22.85;;;8.00;;
68455;SDS011;55437;55.046;38.838;2023-07-09T02:12:56;17.90;;;8.43;;
68455;SDS011;55437;55.046;38.838;2023-07-09T02:15:22;15.55;;;8.23;;
68455;SDS011;55437;55.046;38.838;2023-07-09T02:17:49;19.50;;;8.30;;
68455;SDS011;55437;55.046;38.838;2023-07-09T02:23:03;15.55;;;7.18;;
68455;SDS011;55437;55.046;38.838;2023-07-09T02:25:30;16.77;;;6.97;;
68455;SDS011;55437;55.046;38.838;2023-07-09T02:27:56;16.80;;;7.60;;
68455;SDS011;55437;55.046;38.838;2023-07-09T02:30:21;19.63;;;7.68;;
68455;SDS011;55437;55.046;38.838;2023-07-09T02:32:49;20.00;;;7.97;;
68455;SDS011;55437;55.046;38.838;2023-07-09T02:35:16;16.35;;;7.53;;
68455;SDS011;55437;55.046;38.838;2023-07-09T02:37:42;17.08;;;7.55;;
68455;SDS011;55437;55.046;38.838;2023-07-09T02:40:08;14.15;;;7.32;;
68455;SDS011;55437;55.046;38.838;2023-07-09T02:42:39;17.45;;;7.63;;
68455;SDS011;55437;55.046;38.838;2023-07-09T02:45:05;14.02;;;7.28;;
68455;SDS011;55437;55.046;38.838;2023-07-09T02:47:32;15.35;;;8.27;;
68455;SDS011;55437;55.046;38.838;2023-07-09T02:49:59;14.13;;;6.85;;
68455;SDS011;55437;55.046;38.838;2023-07-09T02:52:25;14.90;;;7.03;;
68455;SDS011;55437;55.046;38.838;2023-07-09T02:54:52;16.02;;;7.05;;
68455;SDS011;55437;55.046;38.838;2023-07-09T02:57:18;15.10;;;7.20;;
68455;SDS011;55437;55.046;38.838;2023-07-09T02:59:44;18.80;;;6.65;;
68455;SDS011;55437;55.046;38.838;2023-07-09T03:02:10;14.95;;;6.68;;
68455;SDS011;55437;55.046;38.838;2023-07-09T03:04:36;19.73;;;7.50;;
68455;SDS011;55437;55.046;38.838;2023-07-09T03:07:02;13.63;;;7.55;;
68455;SDS011;55437;55.046;38.838;2023-07-09T03:09:28;17.95;;;7.78;;
68455;SDS011;55437;55.046;38.838;2023-07-09T03:11:55;14.32;;;6.97;;
68455;SDS011;55437;55.046;38.838;2023-07-09T03:14:39;14.50;;;6.90;;
68455;SDS011;55437;55.046;38.838;2023-07-09T03:17:30;13.82;;;6.80;;
68455;SDS011;55437;55.046;38.838;2023-07-09T03:20:21;18.15;;;8.05;;
68455;SDS011;55437;55.046;38.838;2023-07-09T03:22:47;15.77;;;7.40;;
68455;SDS011;55437;55.046;38.838;2023-07-09T03:25:13;13.15;;;7.00;;
68455;SDS011;55437;55.046;38.838;2023-07-09T03:27:39;12.63;;;6.60;;
68455;SDS011;55437;55.046;38.838;2023-07-09T03:30:05;19.92;;;6.78;;
68455;SDS011;55437;55.046;38.838;2023-07-09T03:32:32;12.73;;;6.43;;
68455;SDS011;55437;55.046;38.838;2023-07-09T03:34:58;16.27;;;6.65;;
68455;SDS011;55437;55.046;38.838;2023-07-09T03:37:24;18.67;;;7.95;;
68455;SDS011;55437;55.046;38.838;2023-07-09T03:39:49;13.73;;;6.20;;
68455;SDS011;55437;55.046;38.838;2023-07-09T03:42:15;19.02;;;7.03;;
68455;SDS011;55437;55.046;38.838;2023-07-09T03:44:42;18.60;;;6.05;;
68455;SDS011;55437;55.046;38.838;2023-07-09T03:47:07;12.38;;;5.72;;
68455;SDS011;55437;55.046;38.838;2023-07-09T03:49:36;14.15;;;5.90;;
68455;SDS011;55437;55.046;38.838;2023-07-09T03:52:03;14.30;;;6.75;;
68455;SDS011;55437;55.046;38.838;2023-07-09T03:54:29;11.77;;;5.90;;
68455;SDS011;55437;55.046;38.838;2023-07-09T03:56:55;12.25;;;5.97;;
68455;SDS011;55437;55.046;38.838;2023-07-09T03:59:20;12.75;;;6.95;;
68455;SDS011;55437;55.046;38.838;2023-07-09T04:01:46;13.75;;;6.05;;
68455;SDS011;55437;55.046;38.838;2023-07-09T04:04:13;13.10;;;6.32;;
68455;SDS011;55437;55.046;38.838;2023-07-09T04:06:38;13.23;;;6.55;;
68455;SDS011;55437;55.046;38.838;2023-07-09T04:09:04;14.05;;;5.85;;
68455;SDS011;55437;55.046;38.838;2023-07-09T04:11:30;18.27;;;7.43;;
68455;SDS011;55437;55.046;38.838;2023-07-09T04:13:56;15.13;;;5.38;;
68455;SDS011;55437;55.046;38.838;2023-07-09T04:16:22;17.45;;;6.18;;
68455;SDS011;55437;55.046;38.838;2023-07-09T04:18:48;11.93;;;5.35;;
68455;SDS011;55437;55.046;38.838;2023-07-09T04:21:14;17.42;;;6.43;;
68455;SDS011;55437;55.046;38.838;2023-07-09T04:23:40;14.60;;;5.40;;
68455;SDS011;55437;55.046;38.838;2023-07-09T04:26:05;13.85;;;5.15;;
68455;SDS011;55437;55.046;38.838;2023-07-09T04:28:34;14.63;;;5.88;;
68455;SDS011;55437;55.046;38.838;2023-07-09T04:31:01;12.38;;;5.97;;
68455;SDS011;55437;55.046;38.838;2023-07-09T04:33:28;15.68;;;6.00;;
68455;SDS011;55437;55.046;38.838;2023-07-09T04:35:54;12.38;;;5.63;;
68455;SDS011;55437;55.046;38.838;2023-07-09T04:38:22;12.60;;;5.95;;
68455;SDS011;55437;55.046;38.838;2023-07-09T04:40:49;12.73;;;6.60;;
68455;SDS011;55437;55.046;38.838;2023-07-09T04:43:15;12.13;;;5.68;;
68455;SDS011;55437;55.046;38.838;2023-07-09T04:45:41;12.95;;;6.10;;
68455;SDS011;55437;55.046;38.838;2023-07-09T04:48:07;14.25;;;5.75;;
68455;SDS011;55437;55.046;38.838;2023-07-09T04:50:33;11.90;;;6.53;;
68455;SDS011;55437;55.046;38.838;2023-07-09T04:52:59;12.00;;;5.25;;
68455;SDS011;55437;55.046;38.838;2023-07-09T04:55:25;16.90;;;6.05;;
68455;SDS011;55437;55.046;38.838;2023-07-09T04:57:52;15.25;;;5.38;;
68455;SDS011;55437;55.046;38.838;2023-07-09T05:00:18;13.30;;;5.20;;
68455;SDS011;55437;55.046;38.838;2023-07-09T05:02:44;12.25;;;4.90;;
68455;SDS011;55437;55.046;38.838;2023-07-09T05:05:10;12.13;;;5.13;;
68455;SDS011;55437;55.046;38.838;2023-07-09T05:07:38;12.68;;;5.20;;
68455;SDS011;55437;55.046;38.838;2023-07-09T05:10:05;17.10;;;7.65;;
68455;SDS011;55437;55.046;38.838;2023-07-09T05:12:31;15.15;;;4.95;;
68455;SDS011;55437;55.046;38.838;2023-07-09T05:14:58;10.70;;;5.05;;
68455;SDS011;55437;55.046;38.838;2023-07-09T05:17:23;13.82;;;5.45;;
68455;SDS011;55437;55.046;38.838;2023-07-09T05:19:51;13.18;;;5.60;;
68455;SDS011;55437;55.046;38.838;2023-07-09T05:22:16;11.98;;;4.53;;
68455;SDS011;55437;55.046;38.838;2023-07-09T05:24:42;10.00;;;4.72;;
68455;SDS011;55437;55.046;38.838;2023-07-09T05:27:08;11.00;;;4.95;;
68455;SDS011;55437;55.046;38.838;2023-07-09T05:29:34;20.75;;;7.32;;
68455;SDS011;55437;55.046;38.838;2023-07-09T05:32:00;18.95;;;5.63;;
68455;SDS011;55437;55.046;38.838;2023-07-09T05:34:26;10.30;;;3.88;;
68455;SDS011;55437;55.046;38.838;2023-07-09T05:36:52;12.70;;;4.10;;
68455;SDS011;55437;55.046;38.838;2023-07-09T05:39:17;13.77;;;4.72;;
68455;SDS011;55437;55.046;38.838;2023-07-09T05:41:47;10.25;;;4.20;;
68455;SDS011;55437;55.046;38.838;2023-07-09T05:44:12;10.93;;;3.78;;
68455;SDS011;55437;55.046;38.838;2023-07-09T05:46:38;10.00;;;3.50;;
68455;SDS011;55437;55.046;38.838;2023-07-09T05:49:05;9.32;;;3.78;;
68455;SDS011;55437;55.046;38.838;2023-07-09T05:51:32;12.05;;;4.15;;
68455;SDS011;55437;55.046;38.838;2023-07-09T05:53:58;10.23;;;4.43;;
68455;SDS011;55437;55.046;38.838;2023-07-09T05:56:25;10.13;;;4.07;;
68455;SDS011;55437;55.046;38.838;2023-07-09T05:58:51;13.32;;;5.80;;
68455;SDS011;55437;55.046;38.838;2023-07-09T06:01:18;14.00;;;4.93;;
68455;SDS011;55437;55.046;38.838;2023-07-09T06:03:45;13.68;;;3.80;;
68455;SDS011;55437;55.046;38.838;2023-07-09T06:06:12;9.40;;;3.45;;
68455;SDS011;55437;55.046;38.838;2023-07-09T06:08:38;8.85;;;4.50;;
68455;SDS011;55437;55.046;38.838;2023-07-09T06:11:04;9.50;;;3.65;;
68455;SDS011;55437;55.046;38.838;2023-07-09T06:13:30;12.80;;;3.90;;
68455;SDS011;55437;55.046;38.838;2023-07-09T06:15:57;10.70;;;4.13;;
68455;SDS011;55437;55.046;38.838;2023-07-09T06:18:23;9.48;;;4.40;;
68455;SDS011;55437;55.046;38.838;2023-07-09T06:20:55;13.45;;;4.40;;
68455;SDS011;55437;55.046;38.838;2023-07-09T06:23:23;10.68;;;4.30;;
68455;SDS011;55437;55.046;38.838;2023-07-09T06:25:51;10.65;;;3.53;;
68455;SDS011;55437;55.046;38.838;2023-07-09T06:28:19;14.02;;;5.00;;
68455;SDS011;55437;55.046;38.838;2023-07-09T06:30:47;12.32;;;4.78;;
68455;SDS011;55437;55.046;38.838;2023-07-09T06:33:14;12.82;;;3.50;;
68455;SDS011;55437;55.046;38.838;2023-07-09T06:35:54;11.70;;;3.65;;
68455;SDS011;55437;55.046;38.838;2023-07-09T06:38:25;10.25;;;4.55;;
68455;SDS011;55437;55.046;38.838;2023-07-09T06:40:52;11.63;;;4.35;;
68455;SDS011;55437;55.046;38.838;2023-07-09T06:43:18;9.10;;;3.38;;
68455;SDS011;55437;55.046;38.838;2023-07-09T06:45:48;9.27;;;3.88;;
68455;SDS011;55437;55.046;38.838;2023-07-09T06:48:26;9.77;;;3.33;;
68455;SDS011;55437;55.046;38.838;2023-07-09T06:50:53;8.20;;;3.00;;
68455;SDS011;55437;55.046;38.838;2023-07-09T06:53:21;7.72;;;3.42;;
68455;SDS011;55437;55.046;38.838;2023-07-09T06:55:48;8.23;;;3.40;;
68455;SDS011;55437;55.046;38.838;2023-07-09T06:58:18;7.90;;;2.88;;
68455;SDS011;55437;55.046;38.838;2023-07-09T07:00:44;10.25;;;3.25;;
68455;SDS011;55437;55.046;38.838;2023-07-09T07:03:11;13.57;;;5.50;;
68455;SDS011;55437;55.046;38.838;2023-07-09T07:05:37;8.88;;;3.30;;
68455;SDS011;55437;55.046;38.838;2023-07-09T07:08:10;7.85;;;3.40;;
68455;SDS011;55437;55.046;38.838;2023-07-09T07:10:36;10.10;;;3.25;;
68455;SDS011;55437;55.046;38.838;2023-07-09T07:13:02;10.38;;;2.65;;
68455;SDS011;55437;55.046;38.838;2023-07-09T07:15:27;10.00;;;3.15;;
68455;SDS011;55437;55.046;38.838;2023-07-09T07:17:53;8.48;;;2.88;;
68455;SDS011;55437;55.046;38.838;2023-07-09T07:20:19;9.43;;;2.78;;
68455;SDS011;55437;55.046;38.838;2023-07-09T07:22:49;9.90;;;3.08;;
68455;SDS011;55437;55.046;38.838;2023-07-09T07:25:15;8.82;;;2.50;;
68455;SDS011;55437;55.046;38.838;2023-07-09T07:27:41;10.95;;;3.13;;
68455;SDS011;55437;55.046;38.838;2023-07-09T07:30:07;10.35;;;2.95;;
68455;SDS011;55437;55.046;38.838;2023-07-09T07:32:43;9.38;;;2.88;;
68455;SDS011;55437;55.046;38.838;2023-07-09T07:35:13;8.40;;;2.75;;
68455;SDS011;55437;55.046;38.838;2023-07-09T07:37:40;9.80;;;3.50;;
68455;SDS011;55437;55.046;38.838;2023-07-09T07:40:06;10.20;;;2.97;;
68455;SDS011;55437;55.046;38.838;2023-07-09T07:42:34;7.72;;;2.90;;
68455;SDS011;55437;55.046;38.838;2023-07-09T07:45:01;9.38;;;3.30;;
68455;SDS011;55437;55.046;38.838;2023-07-09T07:47:31;7.32;;;3.15;;
68455;SDS011;55437;55.046;38.838;2023-07-09T07:49:58;12.43;;;4.32;;
68455;SDS011;55437;55.046;38.838;2023-07-09T07:52:25;7.22;;;2.72;;
68455;SDS011;55437;55.046;38.838;2023-07-09T07:54:51;9.70;;;2.97;;
68455;SDS011;55437;55.046;38.838;2023-07-09T07:57:18;11.90;;;3.10;;
68455;SDS011;55437;55.046;38.838;2023-07-09T07:59:46;9.65;;;3.65;;
68455;SDS011;55437;55.046;38.838;2023-07-09T08:02:13;9.43;;;3.50;;
68455;SDS011;55437;55.046;38.838;2023-07-09T08:04:40;14.32;;;5.30;;
68455;SDS011;55437;55.046;38.838;2023-07-09T08:09:35;7.93;;;2.90;;
68455;SDS011;55437;55.046;38.838;2023-07-09T08:12:01;7.95;;;3.33;;
68455;SDS011;55437;55.046;38.838;2023-07-09T08:14:34;7.78;;;2.80;;
68455;SDS011;55437;55.046;38.838;2023-07-09T08:17:05;9.10;;;3.20;;
68455;SDS011;55437;55.046;38.838;2023-07-09T08:19:31;8.02;;;3.10;;
68455;SDS011;55437;55.046;38.838;2023-07-09T08:22:09;8.30;;;3.28;;
68455;SDS011;55437;55.046;38.838;2023-07-09T08:24:35;12.65;;;3.75;;
68455;SDS011;55437;55.046;38.838;2023-07-09T08:27:01;6.80;;;2.50;;
68455;SDS011;55437;55.046;38.838;2023-07-09T08:29:29;10.70;;;3.15;;
68455;SDS011;55437;55.046;38.838;2023-07-09T08:31:54;7.35;;;2.70;;
68455;SDS011;55437;55.046;38.838;2023-07-09T08:34:20;9.73;;;2.80;;
68455;SDS011;55437;55.046;38.838;2023-07-09T08:36:46;10.45;;;2.70;;
68455;SDS011;55437;55.046;38.838;2023-07-09T08:50:17;6.68;;;2.50;;
68455;SDS011;55437;55.046;38.838;2023-07-09T08:52:48;8.68;;;3.00;;
68455;SDS011;55437;55.046;38.838;2023-07-09T08:55:20;8.13;;;3.13;;
68455;SDS011;55437;55.046;38.838;2023-07-09T08:57:50;8.43;;;2.67;;
68455;SDS011;55437;55.046;38.838;2023-07-09T09:00:31;9.00;;;2.90;;
68455;SDS011;55437;55.046;38.838;2023-07-09T09:03:10;6.45;;;2.40;;
68455;SDS011;55437;55.046;38.838;2023-07-09T09:05:43;6.55;;;2.72;;
68455;SDS011;55437;55.046;38.838;2023-07-09T09:08:36;7.82;;;2.72;;
68455;SDS011;55437;55.046;38.838;2023-07-09T09:11:12;9.70;;;3.50;;
68455;SDS011;55437;55.046;38.838;2023-07-09T09:13:53;9.95;;;3.55;;
68455;SDS011;55437;55.046;38.838;2023-07-09T09:16:30;8.60;;;2.60;;
68455;SDS011;55437;55.046;38.838;2023-07-09T09:18:58;8.60;;;2.95;;
68455;SDS011;55437;55.046;38.838;2023-07-09T09:26:51;7.90;;;2.60;;
68455;SDS011;55437;55.046;38.838;2023-07-09T09:29:23;9.00;;;2.83;;
68455;SDS011;55437;55.046;38.838;2023-07-09T09:31:52;9.38;;;3.38;;
68455;SDS011;55437;55.046;38.838;2023-07-09T09:34:28;9.50;;;4.03;;
68455;SDS011;55437;55.046;38.838;2023-07-09T09:36:55;11.65;;;4.00;;
68455;SDS011;55437;55.046;38.838;2023-07-09T09:39:24;9.77;;;2.70;;
68455;SDS011;55437;55.046;38.838;2023-07-09T09:41:53;8.15;;;3.08;;
68455;SDS011;55437;55.046;38.838;2023-07-09T09:44:26;7.57;;;3.08;;
68455;SDS011;55437;55.046;38.838;2023-07-09T09:46:55;10.30;;;3.85;;
68455;SDS011;55437;55.046;38.838;2023-07-09T09:49:22;8.55;;;3.75;;
68455;SDS011;55437;55.046;38.838;2023-07-09T09:51:48;14.23;;;5.63;;
68455;SDS011;55437;55.046;38.838;2023-07-09T09:54:18;8.68;;;3.03;;
68455;SDS011;55437;55.046;38.838;2023-07-09T09:56:47;11.80;;;3.58;;
68455;SDS011;55437;55.046;38.838;2023-07-09T09:59:17;10.45;;;3.30;;
68455;SDS011;55437;55.046;38.838;2023-07-09T10:01:46;8.30;;;3.28;;
68455;SDS011;55437;55.046;38.838;2023-07-09T10:04:16;7.88;;;3.38;;
68455;SDS011;55437;55.046;38.838;2023-07-09T10:06:49;10.00;;;3.13;;
68455;SDS011;55437;55.046;38.838;2023-07-09T10:20:45;8.30;;;2.70;;
68455;SDS011;55437;55.046;38.838;2023-07-09T10:23:39;7.75;;;2.97;;
68455;SDS011;55437;55.046;38.838;2023-07-09T10:26:16;6.50;;;2.42;;
68455;SDS011;55437;55.046;38.838;2023-07-09T10:31:40;7.45;;;2.78;;
68455;SDS011;55437;55.046;38.838;2023-07-09T10:39:52;11.30;;;3.35;;
68455;SDS011;55437;55.046;38.838;2023-07-09T10:42:40;8.50;;;2.80;;
68455;SDS011;55437;55.046;38.838;2023-07-09T10:45:12;8.18;;;3.30;;
68455;SDS011;55437;55.046;38.838;2023-07-09T10:47:44;8.25;;;2.63;;
68455;SDS011;55437;55.046;38.838;2023-07-09T10:50:49;7.05;;;2.35;;
68455;SDS011;55437;55.046;38.838;2023-07-09T10:53:16;7.40;;;2.60;;
68455;SDS011;55437;55.046;38.838;2023-07-09T10:56:06;10.43;;;2.78;;
68455;SDS011;55437;55.046;38.838;2023-07-09T11:01:03;7.10;;;2.95;;
68455;SDS011;55437;55.046;38.838;2023-07-09T11:03:43;10.25;;;2.80;;
68455;SDS011;55437;55.046;38.838;2023-07-09T11:06:20;9.13;;;3.10;;
68455;SDS011;55437;55.046;38.838;2023-07-09T11:08:51;9.50;;;3.08;;
68455;SDS011;55437;55.046;38.838;2023-07-09T11:11:34;8.60;;;2.83;;
68455;SDS011;55437;55.046;38.838;2023-07-09T11:14:18;10.25;;;3.10;;
68455;SDS011;55437;55.046;38.838;2023-07-09T11:16:52;8.90;;;3.10;;
68455;SDS011;55437;55.046;38.838;2023-07-09T11:19:21;7.80;;;2.95;;
68455;SDS011;55437;55.046;38.838;2023-07-09T11:27:45;8.50;;;3.55;;
68455;SDS011;55437;55.046;38.838;2023-07-09T11:30:24;9.02;;;3.00;;
68455;SDS011;55437;55.046;38.838;2023-07-09T11:32:53;11.70;;;3.40;;
68455;SDS011;55437;55.046;38.838;2023-07-09T11:35:48;9.13;;;2.83;;
68455;SDS011;55437;55.046;38.838;2023-07-09T11:38:23;8.95;;;3.28;;
68455;SDS011;55437;55.046;38.838;2023-07-09T11:40:51;9.23;;;2.85;;
68455;SDS011;55437;55.046;38.838;2023-07-09T11:43:31;7.78;;;2.72;;
68455;SDS011;55437;55.046;38.838;2023-07-09T11:46:03;9.68;;;3.05;;
68455;SDS011;55437;55.046;38.838;2023-07-09T11:48:35;10.15;;;3.25;;
68455;SDS011;55437;55.046;38.838;2023-07-09T11:51:07;11.00;;;3.15;;
68455;SDS011;55437;55.046;38.838;2023-07-09T11:56:17;8.73;;;3.70;;
68455;SDS011;55437;55.046;38.838;2023-07-09T11:58:47;9.73;;;3.38;;
68455;SDS011;55437;55.046;38.838;2023-07-09T12:01:16;9.02;;;3.63;;
68455;SDS011;55437;55.046;38.838;2023-07-09T12:03:45;12.40;;;3.95;;
68455;SDS011;55437;55.046;38.838;2023-07-09T12:06:16;9.10;;;3.35;;
68455;SDS011;55437;55.046;38.838;2023-07-09T12:08:45;9.68;;;3.70;;
68455;SDS011;55437;55.046;38.838;2023-07-09T12:11:24;26.70;;;11.68;;
68455;SDS011;55437;55.046;38.838;2023-07-09T12:13:51;8.07;;;3.33;;
68455;SDS011;55437;55.046;38.838;2023-07-09T12:16:21;9.68;;;3.03;;
68455;SDS011;55437;55.046;38.838;2023-07-09T12:18:53;7.72;;;2.80;;
68455;SDS011;55437;55.046;38.838;2023-07-09T12:21:19;8.40;;;3.47;;
68455;SDS011;55437;55.046;38.838;2023-07-09T12:23:46;7.97;;;3.15;;
68455;SDS011;55437;55.046;38.838;2023-07-09T12:26:17;8.80;;;3.25;;
68455;SDS011;55437;55.046;38.838;2023-07-09T12:28:52;11.20;;;3.13;;
68455;SDS011;55437;55.046;38.838;2023-07-09T12:31:24;10.35;;;3.00;;
68455;SDS011;55437;55.046;38.838;2023-07-09T12:33:53;10.60;;;2.97;;
68455;SDS011;55437;55.046;38.838;2023-07-09T12:36:20;10.32;;;3.30;;
68455;SDS011;55437;55.046;38.838;2023-07-09T12:38:49;9.32;;;3.35;;
68455;SDS011;55437;55.046;38.838;2023-07-09T12:41:19;11.82;;;3.00;;
68455;SDS011;55437;55.046;38.838;2023-07-09T12:43:47;7.68;;;3.00;;
68455;SDS011;55437;55.046;38.838;2023-07-09T12:46:14;8.15;;;2.97;;
68455;SDS011;55437;55.046;38.838;2023-07-09T12:48:41;10.18;;;3.10;;
68455;SDS011;55437;55.046;38.838;2023-07-09T12:51:08;8.85;;;2.80;;
68455;SDS011;55437;55.046;38.838;2023-07-09T12:53:36;11.35;;;3.25;;
68455;SDS011;55437;55.046;38.838;2023-07-09T12:58:36;8.95;;;3.72;;
68455;SDS011;55437;55.046;38.838;2023-07-09T13:01:07;9.63;;;3.17;;
68455;SDS011;55437;55.046;38.838;2023-07-09T13:03:41;9.45;;;3.42;;
68455;SDS011;55437;55.046;38.838;2023-07-09T13:06:23;10.60;;;3.20;;
68455;SDS011;55437;55.046;38.838;2023-07-09T13:08:57;7.20;;;3.22;;
68455;SDS011;55437;55.046;38.838;2023-07-09T13:11:25;9.57;;;3.17;;
68455;SDS011;55437;55.046;38.838;2023-07-09T13:14:01;8.40;;;3.08;;
68455;SDS011;55437;55.046;38.838;2023-07-09T13:16:48;8.07;;;3.65;;
68455;SDS011;55437;55.046;38.838;2023-07-09T13:19:14;9.30;;;3.13;;
68455;SDS011;55437;55.046;38.838;2023-07-09T13:21:40;9.38;;;3.75;;
68455;SDS011;55437;55.046;38.838;2023-07-09T13:24:28;11.48;;;3.67;;
68455;SDS011;55437;55.046;38.838;2023-07-09T13:26:55;11.10;;;4.63;;
68455;SDS011;55437;55.046;38.838;2023-07-09T13:29:24;9.38;;;3.35;;
68455;SDS011;55437;55.046;38.838;2023-07-09T13:31:50;9.07;;;3.45;;
68455;SDS011;55437;55.046;38.838;2023-07-09T13:34:19;8.52;;;2.90;;
68455;SDS011;55437;55.046;38.838;2023-07-09T13:36:47;7.60;;;3.05;;
68455;SDS011;55437;55.046;38.838;2023-07-09T13:39:15;15.60;;;4.80;;
68455;SDS011;55437;55.046;38.838;2023-07-09T13:41:44;12.77;;;3.28;;
68455;SDS011;55437;55.046;38.838;2023-07-09T13:44:16;10.30;;;4.03;;
68455;SDS011;55437;55.046;38.838;2023-07-09T13:46:47;11.43;;;3.00;;
68455;SDS011;55437;55.046;38.838;2023-07-09T13:49:16;8.52;;;2.55;;
68455;SDS011;55437;55.046;38.838;2023-07-09T13:51:44;7.68;;;2.72;;
68455;SDS011;55437;55.046;38.838;2023-07-09T13:56:44;8.63;;;3.20;;
68455;SDS011;55437;55.046;38.838;2023-07-09T13:59:15;8.00;;;3.00;;
68455;SDS011;55437;55.046;38.838;2023-07-09T14:01:45;8.25;;;2.90;;
68455;SDS011;55437;55.046;38.838;2023-07-09T14:04:15;9.48;;;3.60;;
68455;SDS011;55437;55.046;38.838;2023-07-09T14:06:45;8.68;;;3.40;;
68455;SDS011;55437;55.046;38.838;2023-07-09T14:09:13;10.57;;;2.92;;
68455;SDS011;55437;55.046;38.838;2023-07-09T14:11:47;8.00;;;2.72;;
68455;SDS011;55437;55.046;38.838;2023-07-09T14:14:21;8.75;;;2.90;;
68455;SDS011;55437;55.046;38.838;2023-07-09T14:16:50;7.90;;;2.90;;
68455;SDS011;55437;55.046;38.838;2023-07-09T14:19:18;9.70;;;3.22;;
68455;SDS011;55437;55.046;38.838;2023-07-09T14:21:47;10.23;;;2.90;;
68455;SDS011;55437;55.046;38.838;2023-07-09T14:24:24;9.13;;;3.38;;
68455;SDS011;55437;55.046;38.838;2023-07-09T14:26:52;8.32;;;3.00;;
68455;SDS011;55437;55.046;38.838;2023-07-09T14:29:20;10.30;;;3.50;;
68455;SDS011;55437;55.046;38.838;2023-07-09T14:31:51;9.60;;;3.25;;
68455;SDS011;55437;55.046;38.838;2023-07-09T14:34:22;7.50;;;3.22;;
68455;SDS011;55437;55.046;38.838;2023-07-09T14:36:57;11.43;;;4.03;;
68455;SDS011;55437;55.046;38.838;2023-07-09T14:39:27;10.85;;;3.40;;
68455;SDS011;55437;55.046;38.838;2023-07-09T14:41:53;17.85;;;4.68;;
68455;SDS011;55437;55.046;38.838;2023-07-09T14:47:00;9.68;;;3.40;;
68455;SDS011;55437;55.046;38.838;2023-07-09T14:49:26;7.80;;;3.08;;
68455;SDS011;55437;55.046;38.838;2023-07-09T14:51:53;8.48;;;2.67;;
68455;SDS011;55437;55.046;38.838;2023-07-09T14:54:21;7.53;;;2.83;;
68455;SDS011;55437;55.046;38.838;2023-07-09T14:59:47;11.10;;;3.65;;
68455;SDS011;55437;55.046;38.838;2023-07-09T15:05:00;13.90;;;4.30;;
68455;SDS011;55437;55.046;38.838;2023-07-09T15:07:26;8.80;;;3.22;;
68455;SDS011;55437;55.046;38.838;2023-07-09T15:09:59;11.23;;;4.03;;
68455;SDS011;55437;55.046;38.838;2023-07-09T15:12:33;8.77;;;3.75;;
68455;SDS011;55437;55.046;38.838;2023-07-09T15:17:59;12.45;;;3.30;;
68455;SDS011;55437;55.046;38.838;2023-07-09T15:20:28;6.70;;;2.45;;
68455;SDS011;55437;55.046;38.838;2023-07-09T15:22:55;14.27;;;4.35;;
68455;SDS011;55437;55.046;38.838;2023-07-09T15:25:27;8.45;;;3.33;;
68455;SDS011;55437;55.046;38.838;2023-07-09T15:27:55;9.88;;;3.03;;
68455;SDS011;55437;55.046;38.838;2023-07-09T15:30:22;9.68;;;3.55;;
68455;SDS011;55437;55.046;38.838;2023-07-09T15:32:50;8.23;;;3.15;;
68455;SDS011;55437;55.046;38.838;2023-07-09T15:35:17;12.98;;;3.63;;
68455;SDS011;55437;55.046;38.838;2023-07-09T15:37:44;8.45;;;2.95;;
68455;SDS011;55437;55.046;38.838;2023-07-09T15:42:47;9.43;;;3.10;;
68455;SDS011;55437;55.046;38.838;2023-07-09T15:45:15;14.75;;;6.20;;
68455;SDS011;55437;55.046;38.838;2023-07-09T15:47:43;12.18;;;4.50;;
68455;SDS011;55437;55.046;38.838;2023-07-09T15:52:45;7.85;;;3.30;;
68455;SDS011;55437;55.046;38.838;2023-07-09T15:55:16;10.25;;;4.07;;
68455;SDS011;55437;55.046;38.838;2023-07-09T15:57:45;10.90;;;3.67;;
68455;SDS011;55437;55.046;38.838;2023-07-09T16:00:17;13.95;;;4.07;;